sensor_id;sensor_type;location;lat;lon;timestamp;pressure;altitude;pressure_sealevel;temperature;humidity
40946;BME280;55635;50.264;11.918;2023-05-28T00:01:20;96008.91;;;12.04;63.65
40946;BME280;55635;50.264;11.918;2023-05-28T00:04:02;96015.94;;;12.12;62.67
40946;BME280;55635;50.264;11.918;2023-05-28T00:06:43;96019.91;;;12.01;64.67
40946;BME280;55635;50.264;11.918;2023-05-28T00:09:24;96015.13;;;11.96;63.83
40946;BME280;55635;50.264;11.918;2023-05-28T00:12:05;96024.75;;;11.83;63.88
40946;BME280;55635;50.264;11.918;2023-05-28T00:14:47;96013.25;;;11.68;64.82
40946;BME280;55635;50.264;11.918;2023-05-28T00:17:28;96013.94;;;11.70;65.92
40946;BME280;55635;50.264;11.918;2023-05-28T00:20:09;96008.69;;;11.62;66.61
40946;BME280;55635;50.264;11.918;2023-05-28T00:22:51;96013.31;;;11.60;65.34
40946;BME280;55635;50.264;11.918;2023-05-28T00:25:34;96012.72;;;11.72;64.92
40946;BME280;55635;50.264;11.918;2023-05-28T00:28:15;96003.16;;;11.63;66.75
40946;BME280;55635;50.264;11.918;2023-05-28T00:30:56;96009.56;;;11.69;66.19
40946;BME280;55635;50.264;11.918;2023-05-28T00:33:37;96001.97;;;11.66;64.70
40946;BME280;55635;50.264;11.918;2023-05-28T00:36:19;95999.31;;;11.66;65.21
40946;BME280;55635;50.264;11.918;2023-05-28T00:39:03;95998.31;;;11.52;65.92
40946;BME280;55635;50.264;11.918;2023-05-28T00:41:47;95999.16;;;11.53;66.90
40946;BME280;55635;50.264;11.918;2023-05-28T00:44:29;95990.34;;;11.37;66.18
40946;BME280;55635;50.264;11.918;2023-05-28T00:47:19;95995.78;;;11.21;66.48
40946;BME280;55635;50.264;11.918;2023-05-28T00:50:01;95989.00;;;11.19;66.92
40946;BME280;55635;50.264;11.918;2023-05-28T00:52:45;95980.81;;;11.06;66.94
40946;BME280;55635;50.264;11.918;2023-05-28T00:55:29;95986.16;;;11.20;65.88
40946;BME280;55635;50.264;11.918;2023-05-28T00:58:19;95994.13;;;11.20;67.10
40946;BME280;55635;50.264;11.918;2023-05-28T01:01:00;95972.97;;;11.12;67.44
40946;BME280;55635;50.264;11.918;2023-05-28T01:03:41;95976.75;;;11.18;67.22
40946;BME280;55635;50.264;11.918;2023-05-28T01:06:23;95978.75;;;11.16;66.91
40946;BME280;55635;50.264;11.918;2023-05-28T01:09:08;95980.03;;;11.20;66.07
40946;BME280;55635;50.264;11.918;2023-05-28T01:11:49;95966.00;;;11.11;65.55
40946;BME280;55635;50.264;11.918;2023-05-28T01:14:33;95971.97;;;11.13;65.47
40946;BME280;55635;50.264;11.918;2023-05-28T01:17:18;95968.66;;;11.11;67.60
40946;BME280;55635;50.264;11.918;2023-05-28T01:20:00;95964.34;;;11.10;66.08
40946;BME280;55635;50.264;11.918;2023-05-28T01:23:04;95959.03;;;11.10;67.37
40946;BME280;55635;50.264;11.918;2023-05-28T01:25:50;95964.34;;;11.10;67.32
40946;BME280;55635;50.264;11.918;2023-05-28T01:28:32;95963.59;;;11.02;66.43
40946;BME280;55635;50.264;11.918;2023-05-28T01:31:14;95966.59;;;10.84;66.77
40946;BME280;55635;50.264;11.918;2023-05-28T01:33:55;95966.94;;;10.81;67.82
40946;BME280;55635;50.264;11.918;2023-05-28T01:36:46;95955.97;;;10.61;68.26
40946;BME280;55635;50.264;11.918;2023-05-28T01:39:35;95946.91;;;10.56;66.90
40946;BME280;55635;50.264;11.918;2023-05-28T01:42:19;95959.09;;;10.65;66.45
40946;BME280;55635;50.264;11.918;2023-05-28T01:45:01;95950.38;;;10.56;66.32
40946;BME280;55635;50.264;11.918;2023-05-28T01:47:49;95963.00;;;10.54;66.77
40946;BME280;55635;50.264;11.918;2023-05-28T01:50:30;95954.09;;;10.47;67.61
40946;BME280;55635;50.264;11.918;2023-05-28T01:53:13;95951.31;;;10.41;69.16
40946;BME280;55635;50.264;11.918;2023-05-28T01:55:54;95958.56;;;10.47;68.46
40946;BME280;55635;50.264;11.918;2023-05-28T01:58:40;95939.44;;;10.36;67.70
40946;BME280;55635;50.264;11.918;2023-05-28T02:01:30;95956.25;;;10.44;67.33
40946;BME280;55635;50.264;11.918;2023-05-28T02:04:19;95948.72;;;10.32;68.56
40946;BME280;55635;50.264;11.918;2023-05-28T02:07:00;95947.25;;;10.30;69.39
40946;BME280;55635;50.264;11.918;2023-05-28T02:09:41;95947.91;;;10.32;69.89
40946;BME280;55635;50.264;11.918;2023-05-28T02:12:23;95936.53;;;10.23;68.87
40946;BME280;55635;50.264;11.918;2023-05-28T02:15:06;95929.28;;;10.09;68.28
40946;BME280;55635;50.264;11.918;2023-05-28T02:17:47;95943.53;;;10.16;69.20
40946;BME280;55635;50.264;11.918;2023-05-28T02:20:30;95948.84;;;10.08;69.85
40946;BME280;55635;50.264;11.918;2023-05-28T02:23:11;95938.94;;;10.02;69.06
40946;BME280;55635;50.264;11.918;2023-05-28T02:25:52;95937.91;;;10.03;68.59
40946;BME280;55635;50.264;11.918;2023-05-28T02:28:32;95944.78;;;9.90;68.24
40946;BME280;55635;50.264;11.918;2023-05-28T02:31:14;95939.00;;;9.86;68.39
40946;BME280;55635;50.264;11.918;2023-05-28T02:33:55;95922.16;;;9.79;68.81
40946;BME280;55635;50.264;11.918;2023-05-28T02:36:36;95936.22;;;9.88;70.38
40946;BME280;55635;50.264;11.918;2023-05-28T02:39:20;95937.69;;;9.90;68.95
40946;BME280;55635;50.264;11.918;2023-05-28T02:42:01;95931.13;;;9.70;69.02
40946;BME280;55635;50.264;11.918;2023-05-28T02:44:42;95931.50;;;9.59;69.55
40946;BME280;55635;50.264;11.918;2023-05-28T02:47:23;95940.78;;;9.63;69.19
40946;BME280;55635;50.264;11.918;2023-05-28T02:50:06;95924.47;;;9.43;70.07
40946;BME280;55635;50.264;11.918;2023-05-28T02:53:03;95939.47;;;9.59;69.73
40946;BME280;55635;50.264;11.918;2023-05-28T02:55:44;95937.94;;;9.64;68.89
40946;BME280;55635;50.264;11.918;2023-05-28T02:58:25;95938.47;;;9.60;69.60
40946;BME280;55635;50.264;11.918;2023-05-28T03:01:06;95930.59;;;9.44;70.77
40946;BME280;55635;50.264;11.918;2023-05-28T03:03:47;95960.16;;;9.55;70.39
40946;BME280;55635;50.264;11.918;2023-05-28T03:06:28;95953.03;;;9.56;71.40
40946;BME280;55635;50.264;11.918;2023-05-28T03:09:09;95946.75;;;9.57;70.82
40946;BME280;55635;50.264;11.918;2023-05-28T03:11:50;95941.63;;;9.55;70.63
40946;BME280;55635;50.264;11.918;2023-05-28T03:14:31;95952.38;;;9.54;71.74
40946;BME280;55635;50.264;11.918;2023-05-28T03:17:13;95951.72;;;9.60;69.93
40946;BME280;55635;50.264;11.918;2023-05-28T03:19:54;95944.78;;;9.51;69.92
40946;BME280;55635;50.264;11.918;2023-05-28T03:22:39;95953.03;;;9.56;70.44
40946;BME280;55635;50.264;11.918;2023-05-28T03:25:21;95950.72;;;9.53;70.51
40946;BME280;55635;50.264;11.918;2023-05-28T03:28:02;95956.03;;;9.53;70.98
40946;BME280;55635;50.264;11.918;2023-05-28T03:30:56;95955.03;;;9.54;71.04
40946;BME280;55635;50.264;11.918;2023-05-28T03:33:38;95951.38;;;9.55;70.93
40946;BME280;55635;50.264;11.918;2023-05-28T03:36:19;95949.84;;;9.60;70.36
40946;BME280;55635;50.264;11.918;2023-05-28T03:39:00;95958.63;;;9.61;71.50
40946;BME280;55635;50.264;11.918;2023-05-28T03:41:42;95942.94;;;9.59;69.97
40946;BME280;55635;50.264;11.918;2023-05-28T03:44:26;95912.44;;;9.33;70.16
40946;BME280;55635;50.264;11.918;2023-05-28T03:47:07;95949.38;;;9.65;69.47
40946;BME280;55635;50.264;11.918;2023-05-28T03:49:48;95951.53;;;9.61;69.90
40946;BME280;55635;50.264;11.918;2023-05-28T03:52:31;95949.56;;;9.55;70.63
40946;BME280;55635;50.264;11.918;2023-05-28T03:55:12;95946.72;;;9.65;70.16
40946;BME280;55635;50.264;11.918;2023-05-28T03:57:54;95939.94;;;9.62;70.50
40946;BME280;55635;50.264;11.918;2023-05-28T04:00:35;95942.91;;;9.67;70.82
40946;BME280;55635;50.264;11.918;2023-05-28T04:03:16;95948.72;;;9.63;69.57
40946;BME280;55635;50.264;11.918;2023-05-28T04:06:00;95941.41;;;9.65;69.10
40946;BME280;55635;50.264;11.918;2023-05-28T04:08:41;95950.34;;;9.64;70.21
40946;BME280;55635;50.264;11.918;2023-05-28T04:11:23;95943.44;;;9.55;70.77
40946;BME280;55635;50.264;11.918;2023-05-28T04:14:05;95951.25;;;9.40;72.04
40946;BME280;55635;50.264;11.918;2023-05-28T04:16:48;95951.09;;;9.42;71.58
40946;BME280;55635;50.264;11.918;2023-05-28T04:19:29;95947.59;;;9.49;71.20
40946;BME280;55635;50.264;11.918;2023-05-28T04:22:10;95950.38;;;9.56;71.85
40946;BME280;55635;50.264;11.918;2023-05-28T04:24:52;95949.56;;;9.55;72.39
40946;BME280;55635;50.264;11.918;2023-05-28T04:27:36;95937.13;;;9.64;72.63
40946;BME280;55635;50.264;11.918;2023-05-28T04:30:18;95930.31;;;9.69;72.28
40946;BME280;55635;50.264;11.918;2023-05-28T04:32:59;95939.84;;;9.78;72.29
40946;BME280;55635;50.264;11.918;2023-05-28T04:35:40;95932.59;;;9.80;71.90
40946;BME280;55635;50.264;11.918;2023-05-28T04:38:21;95944.31;;;9.86;73.24
40946;BME280;55635;50.264;11.918;2023-05-28T04:41:02;95940.34;;;9.82;72.97
40946;BME280;55635;50.264;11.918;2023-05-28T04:43:45;95937.06;;;9.80;72.82
40946;BME280;55635;50.264;11.918;2023-05-28T04:46:27;95946.25;;;9.92;72.28
40946;BME280;55635;50.264;11.918;2023-05-28T04:49:11;95945.72;;;10.05;71.84
40946;BME280;55635;50.264;11.918;2023-05-28T04:51:52;95943.34;;;10.18;72.38
40946;BME280;55635;50.264;11.918;2023-05-28T04:54:33;95940.81;;;10.24;73.01
40946;BME280;55635;50.264;11.918;2023-05-28T04:57:15;95944.84;;;10.43;72.53
40946;BME280;55635;50.264;11.918;2023-05-28T04:59:56;95934.22;;;10.43;72.38
40946;BME280;55635;50.264;11.918;2023-05-28T05:02:38;95952.53;;;10.61;73.03
40946;BME280;55635;50.264;11.918;2023-05-28T05:05:20;95945.97;;;10.71;72.94
40946;BME280;55635;50.264;11.918;2023-05-28T05:08:01;95932.97;;;10.76;72.50
40946;BME280;55635;50.264;11.918;2023-05-28T05:10:43;95944.66;;;10.90;72.71
40946;BME280;55635;50.264;11.918;2023-05-28T05:13:24;95943.50;;;11.07;72.42
40946;BME280;55635;50.264;11.918;2023-05-28T05:16:05;95919.53;;;11.15;72.26
40946;BME280;55635;50.264;11.918;2023-05-28T05:18:46;95936.22;;;11.38;72.24
40946;BME280;55635;50.264;11.918;2023-05-28T05:21:28;95939.06;;;11.52;72.40
40946;BME280;55635;50.264;11.918;2023-05-28T05:24:09;95926.34;;;11.62;71.92
40946;BME280;55635;50.264;11.918;2023-05-28T05:26:52;95933.31;;;11.77;71.39
40946;BME280;55635;50.264;11.918;2023-05-28T05:29:33;95941.91;;;11.94;71.19
40946;BME280;55635;50.264;11.918;2023-05-28T05:32:14;95918.53;;;12.04;70.99
40946;BME280;55635;50.264;11.918;2023-05-28T05:34:55;95919.31;;;12.19;70.75
40946;BME280;55635;50.264;11.918;2023-05-28T05:37:39;95918.84;;;12.51;70.30
40946;BME280;55635;50.264;11.918;2023-05-28T05:40:32;95918.66;;;12.74;69.82
40946;BME280;55635;50.264;11.918;2023-05-28T05:43:36;95922.50;;;12.93;70.51
40946;BME280;55635;50.264;11.918;2023-05-28T05:46:17;95929.66;;;13.14;69.37
40946;BME280;55635;50.264;11.918;2023-05-28T05:48:59;95930.34;;;13.22;69.06
40946;BME280;55635;50.264;11.918;2023-05-28T05:51:40;95932.31;;;13.41;68.13
40946;BME280;55635;50.264;11.918;2023-05-28T05:54:21;95932.66;;;13.59;67.77
40946;BME280;55635;50.264;11.918;2023-05-28T05:57:03;95932.91;;;13.71;66.89
40946;BME280;55635;50.264;11.918;2023-05-28T05:59:44;95933.06;;;14.04;66.02
40946;BME280;55635;50.264;11.918;2023-05-28T06:02:25;95928.22;;;14.21;65.73
40946;BME280;55635;50.264;11.918;2023-05-28T06:05:07;95924.63;;;14.41;63.80
40946;BME280;55635;50.264;11.918;2023-05-28T06:08:11;95920.16;;;14.68;62.58
40946;BME280;55635;50.264;11.918;2023-05-28T06:11:08;95922.25;;;15.12;62.38
40946;BME280;55635;50.264;11.918;2023-05-28T06:13:51;95910.28;;;15.73;59.25
40946;BME280;55635;50.264;11.918;2023-05-28T06:16:32;95905.47;;;16.46;57.61
40946;BME280;55635;50.264;11.918;2023-05-28T06:19:13;95908.25;;;17.70;57.29
40946;BME280;55635;50.264;11.918;2023-05-28T06:21:55;95909.22;;;18.30;53.98
40946;BME280;55635;50.264;11.918;2023-05-28T06:24:36;95905.59;;;18.84;52.51
40946;BME280;55635;50.264;11.918;2023-05-28T06:27:17;95910.09;;;19.66;49.93
40946;BME280;55635;50.264;11.918;2023-05-28T06:29:59;95901.41;;;20.50;46.96
40946;BME280;55635;50.264;11.918;2023-05-28T06:32:41;95901.34;;;21.35;46.06
40946;BME280;55635;50.264;11.918;2023-05-28T06:35:22;95894.75;;;21.98;43.66
40946;BME280;55635;50.264;11.918;2023-05-28T06:38:03;95900.78;;;22.48;43.40
40946;BME280;55635;50.264;11.918;2023-05-28T06:40:45;95906.53;;;23.00;42.52
40946;BME280;55635;50.264;11.918;2023-05-28T06:43:26;95912.34;;;23.41;40.78
40946;BME280;55635;50.264;11.918;2023-05-28T06:46:30;95907.84;;;23.88;39.29
40946;BME280;55635;50.264;11.918;2023-05-28T06:49:11;95907.16;;;23.71;38.99
40946;BME280;55635;50.264;11.918;2023-05-28T06:51:52;95915.53;;;24.06;38.53
40946;BME280;55635;50.264;11.918;2023-05-28T06:54:33;95906.59;;;24.63;38.06
40946;BME280;55635;50.264;11.918;2023-05-28T06:57:15;95906.47;;;24.95;37.62
40946;BME280;55635;50.264;11.918;2023-05-28T07:00:06;95911.41;;;25.43;35.61
40946;BME280;55635;50.264;11.918;2023-05-28T07:03:07;95904.91;;;25.69;35.33
40946;BME280;55635;50.264;11.918;2023-05-28T07:06:07;95911.66;;;26.07;34.14
40946;BME280;55635;50.264;11.918;2023-05-28T07:08:48;95905.09;;;26.38;33.59
40946;BME280;55635;50.264;11.918;2023-05-28T07:11:30;95919.66;;;26.68;33.82
40946;BME280;55635;50.264;11.918;2023-05-28T07:14:11;95916.59;;;27.28;33.34
40946;BME280;55635;50.264;11.918;2023-05-28T07:16:52;95915.72;;;27.38;32.11
40946;BME280;55635;50.264;11.918;2023-05-28T07:19:33;95911.06;;;27.43;32.50
40946;BME280;55635;50.264;11.918;2023-05-28T07:22:14;95911.81;;;27.15;32.08
40946;BME280;55635;50.264;11.918;2023-05-28T07:24:55;95911.50;;;27.61;32.99
40946;BME280;55635;50.264;11.918;2023-05-28T07:27:37;95899.66;;;28.04;32.58
40946;BME280;55635;50.264;11.918;2023-05-28T07:30:18;95897.72;;;28.33;31.89
40946;BME280;55635;50.264;11.918;2023-05-28T07:32:59;95895.56;;;28.78;31.15
40946;BME280;55635;50.264;11.918;2023-05-28T07:35:40;95902.59;;;28.84;30.83
40946;BME280;55635;50.264;11.918;2023-05-28T07:38:21;95891.75;;;28.79;30.45
40946;BME280;55635;50.264;11.918;2023-05-28T07:41:05;95897.72;;;28.57;30.97
40946;BME280;55635;50.264;11.918;2023-05-28T07:43:58;95891.88;;;28.87;30.99
40946;BME280;55635;50.264;11.918;2023-05-28T07:46:42;95890.91;;;29.02;31.57
40946;BME280;55635;50.264;11.918;2023-05-28T07:49:37;95885.47;;;28.97;30.37
40946;BME280;55635;50.264;11.918;2023-05-28T07:52:18;95892.34;;;28.94;30.54
40946;BME280;55635;50.264;11.918;2023-05-28T07:55:01;95887.56;;;29.05;30.58
40946;BME280;55635;50.264;11.918;2023-05-28T07:57:42;95887.84;;;28.61;29.90
40946;BME280;55635;50.264;11.918;2023-05-28T08:00:23;95883.19;;;28.14;29.11
40946;BME280;55635;50.264;11.918;2023-05-28T08:03:07;95883.00;;;28.34;29.46
40946;BME280;55635;50.264;11.918;2023-05-28T08:05:53;95883.16;;;28.19;29.22
40946;BME280;55635;50.264;11.918;2023-05-28T08:08:34;95884.00;;;27.86;30.41
40946;BME280;55635;50.264;11.918;2023-05-28T08:11:16;95877.03;;;27.75;29.64
40946;BME280;55635;50.264;11.918;2023-05-28T08:13:57;95881.44;;;27.99;29.85
40946;BME280;55635;50.264;11.918;2023-05-28T08:16:40;95876.78;;;27.71;29.75
40946;BME280;55635;50.264;11.918;2023-05-28T08:19:21;95883.63;;;27.97;30.98
40946;BME280;55635;50.264;11.918;2023-05-28T08:22:05;95882.13;;;28.15;29.62
40946;BME280;55635;50.264;11.918;2023-05-28T08:24:48;95876.09;;;27.61;30.23
40946;BME280;55635;50.264;11.918;2023-05-28T08:27:31;95873.75;;;28.30;30.63
40946;BME280;55635;50.264;11.918;2023-05-28T08:30:12;95866.22;;;28.22;30.54
40946;BME280;55635;50.264;11.918;2023-05-28T08:33:04;95868.13;;;28.22;29.63
40946;BME280;55635;50.264;11.918;2023-05-28T08:35:47;95865.38;;;28.45;29.81
40946;BME280;55635;50.264;11.918;2023-05-28T08:38:29;95870.50;;;28.28;29.20
40946;BME280;55635;50.264;11.918;2023-05-28T08:41:12;95865.69;;;28.68;29.74
40946;BME280;55635;50.264;11.918;2023-05-28T08:43:53;95867.66;;;28.38;29.38
40946;BME280;55635;50.264;11.918;2023-05-28T08:46:34;95871.25;;;28.57;30.48
40946;BME280;55635;50.264;11.918;2023-05-28T08:49:52;95865.03;;;28.76;29.11
40946;BME280;55635;50.264;11.918;2023-05-28T08:52:44;95871.34;;;28.47;28.38
40946;BME280;55635;50.264;11.918;2023-05-28T08:55:26;95872.13;;;28.77;28.48
40946;BME280;55635;50.264;11.918;2023-05-28T08:58:17;95872.72;;;28.50;29.45
40946;BME280;55635;50.264;11.918;2023-05-28T09:01:00;95876.88;;;28.66;28.34
40946;BME280;55635;50.264;11.918;2023-05-28T09:04:07;95869.25;;;29.05;27.69
40946;BME280;55635;50.264;11.918;2023-05-28T09:06:55;95871.25;;;29.18;29.62
40946;BME280;55635;50.264;11.918;2023-05-28T09:09:45;95876.97;;;29.54;28.27
40946;BME280;55635;50.264;11.918;2023-05-28T09:12:26;95850.09;;;29.29;26.82
40946;BME280;55635;50.264;11.918;2023-05-28T09:15:16;95866.47;;;29.29;27.83
40946;BME280;55635;50.264;11.918;2023-05-28T09:18:04;95864.53;;;29.30;28.44
40946;BME280;55635;50.264;11.918;2023-05-28T09:20:48;95859.44;;;28.86;29.76
40946;BME280;55635;50.264;11.918;2023-05-28T09:23:30;95855.66;;;29.00;26.94
40946;BME280;55635;50.264;11.918;2023-05-28T09:26:30;95860.69;;;28.93;29.99
40946;BME280;55635;50.264;11.918;2023-05-28T09:29:18;95855.59;;;29.24;28.65
40946;BME280;55635;50.264;11.918;2023-05-28T09:32:01;95852.81;;;29.61;29.03
40946;BME280;55635;50.264;11.918;2023-05-28T09:34:42;95842.97;;;28.91;27.53
40946;BME280;55635;50.264;11.918;2023-05-28T09:37:23;95843.47;;;28.93;25.88
40946;BME280;55635;50.264;11.918;2023-05-28T09:40:08;95847.59;;;29.46;28.63
40946;BME280;55635;50.264;11.918;2023-05-28T09:42:50;95853.16;;;29.23;27.05
40946;BME280;55635;50.264;11.918;2023-05-28T09:45:32;95850.66;;;29.07;27.47
40946;BME280;55635;50.264;11.918;2023-05-28T09:48:14;95848.28;;;29.38;26.88
40946;BME280;55635;50.264;11.918;2023-05-28T09:50:55;95854.31;;;29.54;26.79
40946;BME280;55635;50.264;11.918;2023-05-28T09:53:40;95839.88;;;29.99;26.71
40946;BME280;55635;50.264;11.918;2023-05-28T09:56:33;95841.91;;;30.21;27.29
40946;BME280;55635;50.264;11.918;2023-05-28T09:59:18;95847.06;;;29.77;26.23
40946;BME280;55635;50.264;11.918;2023-05-28T10:05:14;95834.13;;;28.99;28.12
40946;BME280;55635;50.264;11.918;2023-05-28T10:07:57;95838.41;;;28.68;27.08
40946;BME280;55635;50.264;11.918;2023-05-28T10:10:42;95841.47;;;29.36;26.16
40946;BME280;55635;50.264;11.918;2023-05-28T10:13:27;95832.09;;;29.42;27.27
40946;BME280;55635;50.264;11.918;2023-05-28T10:16:08;95837.16;;;29.81;25.15
40946;BME280;55635;50.264;11.918;2023-05-28T10:18:51;95839.47;;;29.60;26.17
40946;BME280;55635;50.264;11.918;2023-05-28T10:21:34;95837.91;;;29.86;24.86
40946;BME280;55635;50.264;11.918;2023-05-28T10:24:16;95824.31;;;29.81;23.17
40946;BME280;55635;50.264;11.918;2023-05-28T10:26:58;95831.34;;;30.28;22.31
40946;BME280;55635;50.264;11.918;2023-05-28T10:29:44;95826.72;;;30.15;22.65
40946;BME280;55635;50.264;11.918;2023-05-28T10:32:26;95828.81;;;30.59;24.00
40946;BME280;55635;50.264;11.918;2023-05-28T10:35:10;95815.84;;;29.64;22.46
40946;BME280;55635;50.264;11.918;2023-05-28T10:38:03;95819.19;;;30.34;23.80
40946;BME280;55635;50.264;11.918;2023-05-28T10:40:45;95818.44;;;30.83;23.73
40946;BME280;55635;50.264;11.918;2023-05-28T10:49:15;95814.06;;;31.85;22.76
40946;BME280;55635;50.264;11.918;2023-05-28T10:52:01;95818.00;;;31.92;23.13
40946;BME280;55635;50.264;11.918;2023-05-28T10:54:43;95817.03;;;32.27;23.24
40946;BME280;55635;50.264;11.918;2023-05-28T10:57:48;95814.78;;;32.29;23.41
40946;BME280;55635;50.264;11.918;2023-05-28T11:00:29;95799.91;;;32.22;23.26
40946;BME280;55635;50.264;11.918;2023-05-28T11:03:14;95804.78;;;32.33;23.18
40946;BME280;55635;50.264;11.918;2023-05-28T11:05:55;95804.59;;;32.21;23.78
40946;BME280;55635;50.264;11.918;2023-05-28T11:08:45;95798.66;;;31.66;23.34
40946;BME280;55635;50.264;11.918;2023-05-28T11:11:26;95809.13;;;31.64;23.42
40946;BME280;55635;50.264;11.918;2023-05-28T11:14:07;95802.91;;;31.81;22.47
40946;BME280;55635;50.264;11.918;2023-05-28T11:16:48;95806.72;;;32.02;23.51
40946;BME280;55635;50.264;11.918;2023-05-28T11:19:29;95799.66;;;31.70;24.13
40946;BME280;55635;50.264;11.918;2023-05-28T11:22:14;95799.00;;;31.29;24.29
40946;BME280;55635;50.264;11.918;2023-05-28T11:25:06;95801.50;;;31.39;25.03
40946;BME280;55635;50.264;11.918;2023-05-28T11:27:48;95792.78;;;31.59;23.71
40946;BME280;55635;50.264;11.918;2023-05-28T11:30:31;95789.94;;;31.64;24.38
40946;BME280;55635;50.264;11.918;2023-05-28T11:33:12;95788.31;;;31.94;24.09
40946;BME280;55635;50.264;11.918;2023-05-28T11:35:59;95792.66;;;31.42;24.34
40946;BME280;55635;50.264;11.918;2023-05-28T11:38:41;95786.75;;;30.00;24.02
40946;BME280;55635;50.264;11.918;2023-05-28T11:41:24;95776.59;;;31.27;23.08
40946;BME280;55635;50.264;11.918;2023-05-28T11:44:26;95781.06;;;31.67;22.87
40946;BME280;55635;50.264;11.918;2023-05-28T11:47:07;95768.03;;;32.04;22.26
40946;BME280;55635;50.264;11.918;2023-05-28T11:49:48;95771.69;;;31.68;22.35
40946;BME280;55635;50.264;11.918;2023-05-28T11:52:29;95769.66;;;32.05;21.94
40946;BME280;55635;50.264;11.918;2023-05-28T11:55:10;95769.47;;;31.70;22.39
40946;BME280;55635;50.264;11.918;2023-05-28T11:57:52;95775.09;;;31.21;23.31
40946;BME280;55635;50.264;11.918;2023-05-28T12:00:36;95774.88;;;31.31;24.69
40946;BME280;55635;50.264;11.918;2023-05-28T12:03:18;95777.94;;;31.83;24.12
40946;BME280;55635;50.264;11.918;2023-05-28T12:05:59;95784.13;;;32.36;23.34
40946;BME280;55635;50.264;11.918;2023-05-28T12:08:40;95777.31;;;32.33;22.49
40946;BME280;55635;50.264;11.918;2023-05-28T12:11:30;95777.44;;;32.94;22.48
40946;BME280;55635;50.264;11.918;2023-05-28T12:14:13;95776.34;;;33.12;23.18
40946;BME280;55635;50.264;11.918;2023-05-28T12:17:07;95776.47;;;32.81;24.45
40946;BME280;55635;50.264;11.918;2023-05-28T12:19:53;95783.81;;;32.46;22.83
40946;BME280;55635;50.264;11.918;2023-05-28T12:22:34;95777.91;;;32.05;23.65
40946;BME280;55635;50.264;11.918;2023-05-28T12:25:15;95774.94;;;32.49;23.19
40946;BME280;55635;50.264;11.918;2023-05-28T12:27:55;95782.47;;;32.83;22.84
40946;BME280;55635;50.264;11.918;2023-05-28T12:30:39;95782.91;;;32.59;22.66
40946;BME280;55635;50.264;11.918;2023-05-28T12:33:21;95780.97;;;32.12;22.34
40946;BME280;55635;50.264;11.918;2023-05-28T12:36:03;95767.31;;;32.29;22.05
40946;BME280;55635;50.264;11.918;2023-05-28T12:38:44;95775.97;;;32.62;22.56
40946;BME280;55635;50.264;11.918;2023-05-28T12:41:25;95773.41;;;32.74;23.02
40946;BME280;55635;50.264;11.918;2023-05-28T12:44:06;95777.78;;;32.75;22.79
40946;BME280;55635;50.264;11.918;2023-05-28T12:46:47;95773.28;;;33.13;20.81
40946;BME280;55635;50.264;11.918;2023-05-28T12:49:27;95773.22;;;32.87;20.18
40946;BME280;55635;50.264;11.918;2023-05-28T12:52:08;95764.63;;;31.67;21.73
40946;BME280;55635;50.264;11.918;2023-05-28T12:54:49;95766.88;;;32.53;22.25
40946;BME280;55635;50.264;11.918;2023-05-28T12:57:30;95758.50;;;32.66;21.87
40946;BME280;55635;50.264;11.918;2023-05-28T13:00:12;95758.72;;;33.13;22.45
40946;BME280;55635;50.264;11.918;2023-05-28T13:02:53;95753.69;;;32.80;21.76
40946;BME280;55635;50.264;11.918;2023-05-28T13:05:34;95760.34;;;33.14;21.79
40946;BME280;55635;50.264;11.918;2023-05-28T13:08:15;95757.56;;;32.88;21.60
40946;BME280;55635;50.264;11.918;2023-05-28T13:10:56;95752.88;;;32.88;21.12
40946;BME280;55635;50.264;11.918;2023-05-28T13:13:38;95754.03;;;33.13;22.44
40946;BME280;55635;50.264;11.918;2023-05-28T13:16:19;95749.66;;;33.12;21.46
40946;BME280;55635;50.264;11.918;2023-05-28T13:19:00;95744.66;;;33.14;22.35
40946;BME280;55635;50.264;11.918;2023-05-28T13:21:42;95745.47;;;33.15;22.68
40946;BME280;55635;50.264;11.918;2023-05-28T13:24:23;95749.63;;;33.04;22.18
40946;BME280;55635;50.264;11.918;2023-05-28T13:27:04;95738.31;;;32.79;20.99
40946;BME280;55635;50.264;11.918;2023-05-28T13:29:45;95739.63;;;32.56;22.25
40946;BME280;55635;50.264;11.918;2023-05-28T13:32:26;95739.94;;;32.98;22.92
40946;BME280;55635;50.264;11.918;2023-05-28T13:35:07;95734.25;;;33.03;22.19
40946;BME280;55635;50.264;11.918;2023-05-28T13:37:52;95733.03;;;33.09;21.22
40946;BME280;55635;50.264;11.918;2023-05-28T13:40:33;95735.75;;;33.26;22.37
40946;BME280;55635;50.264;11.918;2023-05-28T13:43:13;95725.22;;;32.94;21.64
40946;BME280;55635;50.264;11.918;2023-05-28T13:45:55;95729.44;;;33.25;20.99
40946;BME280;55635;50.264;11.918;2023-05-28T13:48:37;95725.88;;;32.99;21.18
40946;BME280;55635;50.264;11.918;2023-05-28T13:51:18;95722.31;;;33.16;21.49
40946;BME280;55635;50.264;11.918;2023-05-28T13:53:59;95727.59;;;33.47;21.64
40946;BME280;55635;50.264;11.918;2023-05-28T13:56:40;95722.03;;;33.81;20.45
40946;BME280;55635;50.264;11.918;2023-05-28T13:59:21;95714.50;;;33.61;21.50
40946;BME280;55635;50.264;11.918;2023-05-28T14:02:03;95702.91;;;33.04;21.16
40946;BME280;55635;50.264;11.918;2023-05-28T14:04:44;95708.59;;;32.99;21.00
40946;BME280;55635;50.264;11.918;2023-05-28T14:07:25;95708.75;;;33.11;22.57
40946;BME280;55635;50.264;11.918;2023-05-28T14:10:06;95710.22;;;32.74;22.82
40946;BME280;55635;50.264;11.918;2023-05-28T14:12:51;95708.09;;;33.14;21.92
40946;BME280;55635;50.264;11.918;2023-05-28T14:15:32;95706.31;;;33.01;22.02
40946;BME280;55635;50.264;11.918;2023-05-28T14:18:13;95705.84;;;32.81;21.59
40946;BME280;55635;50.264;11.918;2023-05-28T14:20:55;95705.66;;;32.52;23.02
40946;BME280;55635;50.264;11.918;2023-05-28T14:23:36;95709.97;;;32.45;22.88
40946;BME280;55635;50.264;11.918;2023-05-28T14:26:17;95706.19;;;32.71;21.94